sensor_id;sensor_type;location;lat;lon;timestamp;pressure;altitude;pressure_sealevel;temperature;humidity
80629;BME280;69983;42.370;-71.210;2023-10-08T00:00:40;99709.17;;;23.21;27.14
80629;BME280;69983;42.370;-71.210;2023-10-08T00:02:41;99704.91;;;23.39;26.94
80629;BME280;69983;42.370;-71.210;2023-10-08T00:04:41;99700.51;;;23.83;26.87
80629;BME280;69983;42.370;-71.210;2023-10-08T00:06:42;99698.20;;;23.72;26.95
80629;BME280;69983;42.370;-71.210;2023-10-08T00:08:42;99692.75;;;23.95;27.08
80629;BME280;69983;42.370;-71.210;2023-10-08T00:10:43;99687.81;;;23.85;27.11
80629;BME280;69983;42.370;-71.210;2023-10-08T00:12:43;99684.24;;;23.49;27.57
80629;BME280;69983;42.370;-71.210;2023-10-08T00:14:43;99680.90;;;23.15;27.22
80629;BME280;69983;42.370;-71.210;2023-10-08T00:16:43;99677.66;;;22.88;27.26
80629;BME280;69983;42.370;-71.210;2023-10-08T00:18:45;99676.99;;;23.12;27.29
80629;BME280;69983;42.370;-71.210;2023-10-08T00:20:44;99675.21;;;23.25;26.89
80629;BME280;69983;42.370;-71.210;2023-10-08T00:22:44;99670.56;;;23.03;26.97
80629;BME280;69983;42.370;-71.210;2023-10-08T00:24:44;99662.97;;;22.96;27.21
80629;BME280;69983;42.370;-71.210;2023-10-08T00:26:45;99658.52;;;23.84;27.01
80629;BME280;69983;42.370;-71.210;2023-10-08T00:28:45;99651.40;;;23.58;26.92
80629;BME280;69983;42.370;-71.210;2023-10-08T00:30:45;99645.67;;;23.56;27.11
80629;BME280;69983;42.370;-71.210;2023-10-08T00:32:46;99647.55;;;23.90;26.95
80629;BME280;69983;42.370;-71.210;2023-10-08T00:34:47;99644.59;;;23.80;27.16
80629;BME280;69983;42.370;-71.210;2023-10-08T00:36:48;99642.45;;;24.00;27.24
80629;BME280;69983;42.370;-71.210;2023-10-08T00:38:48;99640.31;;;24.38;26.32
80629;BME280;69983;42.370;-71.210;2023-10-08T00:40:49;99638.33;;;24.09;26.23
80629;BME280;69983;42.370;-71.210;2023-10-08T00:42:49;99633.98;;;23.10;26.77
80629;BME280;69983;42.370;-71.210;2023-10-08T00:44:50;99631.96;;;23.18;27.01
80629;BME280;69983;42.370;-71.210;2023-10-08T00:46:50;99629.46;;;23.43;27.17
80629;BME280;69983;42.370;-71.210;2023-10-08T00:48:52;99625.94;;;23.39;27.37
80629;BME280;69983;42.370;-71.210;2023-10-08T00:50:51;99624.93;;;23.34;27.40
80629;BME280;69983;42.370;-71.210;2023-10-08T00:52:52;99624.75;;;23.61;27.32
80629;BME280;69983;42.370;-71.210;2023-10-08T00:54:52;99625.06;;;24.04;26.99
80629;BME280;69983;42.370;-71.210;2023-10-08T00:56:53;99628.10;;;23.99;26.99
80629;BME280;69983;42.370;-71.210;2023-10-08T00:58:53;99628.16;;;23.52;27.13
80629;BME280;69983;42.370;-71.210;2023-10-08T01:00:54;99628.32;;;23.25;27.24
80629;BME280;69983;42.370;-71.210;2023-10-08T01:02:54;99628.22;;;22.94;27.01
80629;BME280;69983;42.370;-71.210;2023-10-08T01:04:55;99626.30;;;23.19;27.52
80629;BME280;69983;42.370;-71.210;2023-10-08T01:06:57;99623.52;;;23.21;27.23
80629;BME280;69983;42.370;-71.210;2023-10-08T01:08:56;99618.63;;;23.57;27.25
80629;BME280;69983;42.370;-71.210;2023-10-08T01:10:56;99614.66;;;23.50;27.27
80629;BME280;69983;42.370;-71.210;2023-10-08T01:12:57;99610.91;;;23.57;27.09
80629;BME280;69983;42.370;-71.210;2023-10-08T01:14:57;99612.50;;;23.95;27.11
80629;BME280;69983;42.370;-71.210;2023-10-08T01:16:57;99608.96;;;23.85;27.38
80629;BME280;69983;42.370;-71.210;2023-10-08T01:18:58;99601.82;;;24.13;27.18
80629;BME280;69983;42.370;-71.210;2023-10-08T01:20:58;99599.99;;;23.85;27.44
80629;BME280;69983;42.370;-71.210;2023-10-08T01:22:59;99601.79;;;23.46;27.12
80629;BME280;69983;42.370;-71.210;2023-10-08T01:25:00;99598.51;;;23.16;27.24
80629;BME280;69983;42.370;-71.210;2023-10-08T01:27:00;99600.66;;;22.88;27.11
80629;BME280;69983;42.370;-71.210;2023-10-08T01:29:01;99598.40;;;22.93;27.17
80629;BME280;69983;42.370;-71.210;2023-10-08T01:31:01;99594.04;;;23.14;27.18
80629;BME280;69983;42.370;-71.210;2023-10-08T01:33:02;99595.84;;;23.28;27.21
80629;BME280;69983;42.370;-71.210;2023-10-08T01:35:03;99595.83;;;23.76;27.02
80629;BME280;69983;42.370;-71.210;2023-10-08T01:37:03;99594.06;;;23.49;27.20
80629;BME280;69983;42.370;-71.210;2023-10-08T01:39:04;99593.26;;;23.74;27.07
80629;BME280;69983;42.370;-71.210;2023-10-08T01:41:04;99591.63;;;23.80;26.90
80629;BME280;69983;42.370;-71.210;2023-10-08T01:43:04;99590.31;;;23.66;27.15
80629;BME280;69983;42.370;-71.210;2023-10-08T01:45:06;99588.25;;;24.03;27.59
80629;BME280;69983;42.370;-71.210;2023-10-08T01:47:05;99584.03;;;24.36;27.89
80629;BME280;69983;42.370;-71.210;2023-10-08T01:49:05;99578.36;;;24.06;27.26
80629;BME280;69983;42.370;-71.210;2023-10-08T01:51:05;99575.97;;;24.00;26.90
80629;BME280;69983;42.370;-71.210;2023-10-08T01:53:06;99570.45;;;23.70;26.83
80629;BME280;69983;42.370;-71.210;2023-10-08T01:55:07;99564.71;;;23.32;26.96
80629;BME280;69983;42.370;-71.210;2023-10-08T01:57:06;99564.64;;;23.35;27.21
80629;BME280;69983;42.370;-71.210;2023-10-08T01:59:08;99563.50;;;23.71;27.22
80629;BME280;69983;42.370;-71.210;2023-10-08T02:01:07;99560.78;;;23.48;27.38
80629;BME280;69983;42.370;-71.210;2023-10-08T02:03:11;99557.46;;;23.51;27.46
80629;BME280;69983;42.370;-71.210;2023-10-08T02:05:11;99551.62;;;23.50;27.58
80629;BME280;69983;42.370;-71.210;2023-10-08T02:07:11;99545.49;;;23.57;27.40
80629;BME280;69983;42.370;-71.210;2023-10-08T02:09:13;99541.55;;;24.27;26.69
80629;BME280;69983;42.370;-71.210;2023-10-08T02:11:14;99541.90;;;23.84;26.59
80629;BME280;69983;42.370;-71.210;2023-10-08T02:13:11;99540.72;;;23.72;26.29
80629;BME280;69983;42.370;-71.210;2023-10-08T02:15:12;99538.27;;;23.17;26.86
80629;BME280;69983;42.370;-71.210;2023-10-08T02:17:15;99532.75;;;23.07;27.11
80629;BME280;69983;42.370;-71.210;2023-10-08T02:19:16;99530.94;;;23.48;26.96
80629;BME280;69983;42.370;-71.210;2023-10-08T02:21:16;99527.45;;;23.48;27.08
80629;BME280;69983;42.370;-71.210;2023-10-08T02:23:16;99523.91;;;23.90;26.83
80629;BME280;69983;42.370;-71.210;2023-10-08T02:25:14;99521.18;;;23.63;27.17
80629;BME280;69983;42.370;-71.210;2023-10-08T02:27:16;99516.27;;;23.75;27.19
80629;BME280;69983;42.370;-71.210;2023-10-08T02:29:16;99513.29;;;23.84;27.25
80629;BME280;69983;42.370;-71.210;2023-10-08T02:31:16;99508.68;;;24.19;26.99
80629;BME280;69983;42.370;-71.210;2023-10-08T02:33:15;99507.50;;;24.33;26.48
80629;BME280;69983;42.370;-71.210;2023-10-08T02:35:16;99505.36;;;23.97;26.39
80629;BME280;69983;42.370;-71.210;2023-10-08T02:37:17;99499.91;;;24.03;25.87
80629;BME280;69983;42.370;-71.210;2023-10-08T02:39:18;99495.76;;;23.69;26.51
80629;BME280;69983;42.370;-71.210;2023-10-08T02:41:19;99492.06;;;23.68;26.71
80629;BME280;69983;42.370;-71.210;2023-10-08T02:43:19;99486.64;;;23.41;27.09
80629;BME280;69983;42.370;-71.210;2023-10-08T02:45:19;99479.72;;;23.50;27.15
80629;BME280;69983;42.370;-71.210;2023-10-08T02:47:19;99474.26;;;23.94;26.83
80629;BME280;69983;42.370;-71.210;2023-10-08T02:49:21;99468.74;;;23.72;27.11
80629;BME280;69983;42.370;-71.210;2023-10-08T02:51:20;99459.11;;;24.01;26.95
80629;BME280;69983;42.370;-71.210;2023-10-08T02:53:20;99453.90;;;23.77;26.83
80629;BME280;69983;42.370;-71.210;2023-10-08T02:55:20;99447.34;;;23.62;27.01
80629;BME280;69983;42.370;-71.210;2023-10-08T02:57:20;99445.49;;;24.20;26.43
80629;BME280;69983;42.370;-71.210;2023-10-08T02:59:22;99440.22;;;24.31;26.20
80629;BME280;69983;42.370;-71.210;2023-10-08T03:01:24;99433.45;;;23.83;26.62
80629;BME280;69983;42.370;-71.210;2023-10-08T03:03:24;99429.37;;;23.67;26.93
80629;BME280;69983;42.370;-71.210;2023-10-08T03:05:24;99424.36;;;23.68;27.04
80629;BME280;69983;42.370;-71.210;2023-10-08T03:07:26;99420.43;;;24.01;27.05
80629;BME280;69983;42.370;-71.210;2023-10-08T03:09:25;99415.24;;;23.81;27.10
80629;BME280;69983;42.370;-71.210;2023-10-08T03:11:26;99411.37;;;24.04;27.16
80629;BME280;69983;42.370;-71.210;2023-10-08T03:13:25;99407.34;;;23.90;27.40
80629;BME280;69983;42.370;-71.210;2023-10-08T03:15:25;99404.34;;;24.21;26.96
80629;BME280;69983;42.370;-71.210;2023-10-08T03:17:27;99403.32;;;24.05;27.16
80629;BME280;69983;42.370;-71.210;2023-10-08T03:19:28;99402.15;;;24.37;27.14
80629;BME280;69983;42.370;-71.210;2023-10-08T03:21:28;99396.43;;;24.06;27.24
80629;BME280;69983;42.370;-71.210;2023-10-08T03:23:27;99399.85;;;24.11;27.23
80629;BME280;69983;42.370;-71.210;2023-10-08T03:25:29;99406.89;;;24.56;27.13
80629;BME280;69983;42.370;-71.210;2023-10-08T03:27:28;99406.04;;;24.22;27.32
80629;BME280;69983;42.370;-71.210;2023-10-08T03:29:29;99412.19;;;23.97;27.63
80629;BME280;69983;42.370;-71.210;2023-10-08T03:31:30;99409.53;;;24.08;27.35
80629;BME280;69983;42.370;-71.210;2023-10-08T03:33:31;99411.61;;;24.21;27.54
80629;BME280;69983;42.370;-71.210;2023-10-08T03:35:31;99413.38;;;24.26;27.54
80629;BME280;69983;42.370;-71.210;2023-10-08T03:37:31;99412.66;;;24.32;27.78
80629;BME280;69983;42.370;-71.210;2023-10-08T03:39:33;99413.89;;;24.03;27.87
80629;BME280;69983;42.370;-71.210;2023-10-08T03:41:33;99413.92;;;24.11;27.66
80629;BME280;69983;42.370;-71.210;2023-10-08T03:43:34;99411.89;;;24.08;27.98
80629;BME280;69983;42.370;-71.210;2023-10-08T03:45:34;99412.81;;;24.57;27.09
80629;BME280;69983;42.370;-71.210;2023-10-08T03:47:35;99415.70;;;24.54;26.66
80629;BME280;69983;42.370;-71.210;2023-10-08T03:49:35;99411.52;;;24.29;26.63
80629;BME280;69983;42.370;-71.210;2023-10-08T03:51:36;99407.31;;;24.05;26.84
80629;BME280;69983;42.370;-71.210;2023-10-08T03:53:36;99402.60;;;23.66;27.32
80629;BME280;69983;42.370;-71.210;2023-10-08T03:55:37;99398.77;;;23.56;27.34
80629;BME280;69983;42.370;-71.210;2023-10-08T03:57:39;99396.04;;;24.03;27.02
80629;BME280;69983;42.370;-71.210;2023-10-08T03:59:40;99396.54;;;24.18;26.97
80629;BME280;69983;42.370;-71.210;2023-10-08T04:01:38;99392.22;;;24.16;27.11
80629;BME280;69983;42.370;-71.210;2023-10-08T04:03:38;99389.63;;;24.16;27.18
80629;BME280;69983;42.370;-71.210;2023-10-08T04:05:40;99387.74;;;23.84;27.34
80629;BME280;69983;42.370;-71.210;2023-10-08T04:07:40;99388.48;;;24.02;27.46
80629;BME280;69983;42.370;-71.210;2023-10-08T04:09:41;99388.40;;;24.09;27.27
80629;BME280;69983;42.370;-71.210;2023-10-08T04:11:40;99387.20;;;24.38;27.27
80629;BME280;69983;42.370;-71.210;2023-10-08T04:13:41;99389.82;;;24.24;27.46
80629;BME280;69983;42.370;-71.210;2023-10-08T04:15:42;99389.99;;;24.47;27.51
80629;BME280;69983;42.370;-71.210;2023-10-08T04:17:42;99385.82;;;23.90;27.67
80629;BME280;69983;42.370;-71.210;2023-10-08T04:19:43;99386.50;;;24.15;27.71
80629;BME280;69983;42.370;-71.210;2023-10-08T04:21:43;99384.39;;;24.16;27.73
80629;BME280;69983;42.370;-71.210;2023-10-08T04:23:43;99385.36;;;23.84;27.84
80629;BME280;69983;42.370;-71.210;2023-10-08T04:25:43;99388.66;;;24.26;27.70
80629;BME280;69983;42.370;-71.210;2023-10-08T04:27:43;99388.98;;;24.38;27.65
80629;BME280;69983;42.370;-71.210;2023-10-08T04:29:43;99391.36;;;24.36;27.71
80629;BME280;69983;42.370;-71.210;2023-10-08T04:31:44;99388.91;;;24.21;27.91
80629;BME280;69983;42.370;-71.210;2023-10-08T04:33:45;99387.69;;;24.26;27.91
80629;BME280;69983;42.370;-71.210;2023-10-08T04:35:45;99381.60;;;24.21;27.79
80629;BME280;69983;42.370;-71.210;2023-10-08T04:37:45;99379.11;;;24.30;27.79
80629;BME280;69983;42.370;-71.210;2023-10-08T04:39:46;99376.71;;;24.43;27.89
80629;BME280;69983;42.370;-71.210;2023-10-08T04:41:46;99371.72;;;24.71;27.64
80629;BME280;69983;42.370;-71.210;2023-10-08T04:43:47;99355.32;;;24.31;27.09
80629;BME280;69983;42.370;-71.210;2023-10-08T04:45:47;99345.09;;;24.69;26.34
80629;BME280;69983;42.370;-71.210;2023-10-08T04:47:47;99341.13;;;24.26;26.58
80629;BME280;69983;42.370;-71.210;2023-10-08T04:49:48;99352.95;;;24.05;26.73
80629;BME280;69983;42.370;-71.210;2023-10-08T04:51:47;99361.74;;;24.23;26.94
80629;BME280;69983;42.370;-71.210;2023-10-08T04:53:48;99364.05;;;24.14;27.11
80629;BME280;69983;42.370;-71.210;2023-10-08T04:55:48;99367.47;;;24.04;26.99
80629;BME280;69983;42.370;-71.210;2023-10-08T04:57:49;99368.30;;;23.99;26.47
80629;BME280;69983;42.370;-71.210;2023-10-08T04:59:51;99364.93;;;24.10;26.15
80629;BME280;69983;42.370;-71.210;2023-10-08T05:01:49;99362.20;;;23.85;26.02
80629;BME280;69983;42.370;-71.210;2023-10-08T05:03:51;99349.18;;;23.98;25.87
80629;BME280;69983;42.370;-71.210;2023-10-08T05:05:50;99354.06;;;23.32;25.82
80629;BME280;69983;42.370;-71.210;2023-10-08T05:07:51;99349.32;;;23.33;26.27
80629;BME280;69983;42.370;-71.210;2023-10-08T05:09:52;99352.54;;;23.29;26.49
80629;BME280;69983;42.370;-71.210;2023-10-08T05:11:53;99352.31;;;23.35;26.67
80629;BME280;69983;42.370;-71.210;2023-10-08T05:13:53;99354.35;;;23.55;26.47
80629;BME280;69983;42.370;-71.210;2023-10-08T05:15:53;99351.74;;;23.65;26.71
80629;BME280;69983;42.370;-71.210;2023-10-08T05:17:53;99353.04;;;23.85;26.42
80629;BME280;69983;42.370;-71.210;2023-10-08T05:19:54;99352.82;;;22.88;26.41
80629;BME280;69983;42.370;-71.210;2023-10-08T05:21:53;99354.16;;;22.98;26.42
80629;BME280;69983;42.370;-71.210;2023-10-08T05:23:53;99354.72;;;22.73;26.30
80629;BME280;69983;42.370;-71.210;2023-10-08T05:25:55;99351.26;;;23.07;26.31
80629;BME280;69983;42.370;-71.210;2023-10-08T05:27:54;99348.95;;;23.24;26.34
80629;BME280;69983;42.370;-71.210;2023-10-08T05:29:55;99348.28;;;23.62;26.17
80629;BME280;69983;42.370;-71.210;2023-10-08T05:31:55;99351.26;;;23.86;26.31
80629;BME280;69983;42.370;-71.210;2023-10-08T05:33:56;99355.72;;;23.47;26.57
80629;BME280;69983;42.370;-71.210;2023-10-08T05:35:56;99361.48;;;23.98;26.01
80629;BME280;69983;42.370;-71.210;2023-10-08T05:37:59;99361.22;;;24.07;25.49
80629;BME280;69983;42.370;-71.210;2023-10-08T05:39:59;99366.77;;;23.58;25.49
80629;BME280;69983;42.370;-71.210;2023-10-08T05:41:58;99368.31;;;23.43;25.49
80629;BME280;69983;42.370;-71.210;2023-10-08T05:43:58;99371.30;;;23.07;25.91
80629;BME280;69983;42.370;-71.210;2023-10-08T05:45:58;99379.42;;;23.14;26.09
80629;BME280;69983;42.370;-71.210;2023-10-08T05:47:59;99382.84;;;23.07;26.33
80629;BME280;69983;42.370;-71.210;2023-10-08T05:49:59;99386.17;;;23.74;26.08
80629;BME280;69983;42.370;-71.210;2023-10-08T05:52:00;99392.33;;;23.44;26.33
80629;BME280;69983;42.370;-71.210;2023-10-08T05:54:00;99388.14;;;23.29;26.41
80629;BME280;69983;42.370;-71.210;2023-10-08T05:56:06;99387.96;;;23.75;26.12
80629;BME280;69983;42.370;-71.210;2023-10-08T05:58:05;99384.89;;;23.66;25.70
80629;BME280;69983;42.370;-71.210;2023-10-08T06:00:02;99379.45;;;23.62;25.34
80629;BME280;69983;42.370;-71.210;2023-10-08T06:02:02;99379.68;;;23.44;25.29
80629;BME280;69983;42.370;-71.210;2023-10-08T06:04:01;99381.97;;;22.85;25.83
80629;BME280;69983;42.370;-71.210;2023-10-08T06:06:03;99385.93;;;23.12;25.78
80629;BME280;69983;42.370;-71.210;2023-10-08T06:08:02;99387.77;;;23.08;25.99
80629;BME280;69983;42.370;-71.210;2023-10-08T06:10:03;99393.65;;;23.24;26.05
80629;BME280;69983;42.370;-71.210;2023-10-08T06:12:04;99400.39;;;23.30;26.11
80629;BME280;69983;42.370;-71.210;2023-10-08T06:14:05;99398.14;;;23.34;26.21
80629;BME280;69983;42.370;-71.210;2023-10-08T06:16:05;99387.97;;;23.70;26.04
80629;BME280;69983;42.370;-71.210;2023-10-08T06:18:05;99385.90;;;23.66;25.59
80629;BME280;69983;42.370;-71.210;2023-10-08T06:20:06;99383.92;;;23.62;25.37
80629;BME280;69983;42.370;-71.210;2023-10-08T06:22:05;99383.66;;;23.02;25.66
80629;BME280;69983;42.370;-71.210;2023-10-08T06:24:06;99379.28;;;23.08;25.77
80629;BME280;69983;42.370;-71.210;2023-10-08T06:26:06;99373.35;;;22.90;25.89
80629;BME280;69983;42.370;-71.210;2023-10-08T06:28:06;99370.09;;;23.30;25.91
80629;BME280;69983;42.370;-71.210;2023-10-08T06:30:12;99361.61;;;23.21;25.95
80629;BME280;69983;42.370;-71.210;2023-10-08T06:32:09;99358.17;;;23.87;25.99
80629;BME280;69983;42.370;-71.210;2023-10-08T06:34:08;99357.04;;;23.69;26.06
80629;BME280;69983;42.370;-71.210;2023-10-08T06:36:09;99362.52;;;23.44;26.20
80629;BME280;69983;42.370;-71.210;2023-10-08T06:38:09;99368.60;;;23.28;26.41
80629;BME280;69983;42.370;-71.210;2023-10-08T06:40:10;99365.81;;;23.42;26.41
80629;BME280;69983;42.370;-71.210;2023-10-08T06:42:08;99371.22;;;23.61;25.86
80629;BME280;69983;42.370;-71.210;2023-10-08T06:44:08;99374.32;;;24.07;25.34
80629;BME280;69983;42.370;-71.210;2023-10-08T06:46:09;99373.02;;;23.95;25.01
80629;BME280;69983;42.370;-71.210;2023-10-08T06:48:09;99372.96;;;23.64;25.18
80629;BME280;69983;42.370;-71.210;2023-10-08T06:50:09;99370.37;;;23.49;25.80
80629;BME280;69983;42.370;-71.210;2023-10-08T06:52:09;99366.86;;;23.18;25.97
80629;BME280;69983;42.370;-71.210;2023-10-08T06:54:10;99366.59;;;23.51;26.12
80629;BME280;69983;42.370;-71.210;2023-10-08T06:56:11;99361.09;;;23.26;26.46
80629;BME280;69983;42.370;-71.210;2023-10-08T06:58:11;99356.60;;;23.52;26.11
80629;BME280;69983;42.370;-71.210;2023-10-08T07:00:14;99363.67;;;23.40;26.30
80629;BME280;69983;42.370;-71.210;2023-10-08T07:02:12;99375.48;;;23.32;26.28
80629;BME280;69983;42.370;-71.210;2023-10-08T07:04:13;99381.71;;;23.70;26.12
80629;BME280;69983;42.370;-71.210;2023-10-08T07:06:14;99387.21;;;23.75;25.42
80629;BME280;69983;42.370;-71.210;2023-10-08T07:08:15;99389.56;;;23.59;25.16
80629;BME280;69983;42.370;-71.210;2023-10-08T07:10:15;99397.95;;;23.49;25.27
80629;BME280;69983;42.370;-71.210;2023-10-08T07:12:15;99400.77;;;23.70;25.25
80629;BME280;69983;42.370;-71.210;2023-10-08T07:14:16;99401.45;;;23.05;25.83
80629;BME280;69983;42.370;-71.210;2023-10-08T07:16:17;99399.57;;;23.32;25.57
80629;BME280;69983;42.370;-71.210;2023-10-08T07:18:18;99400.93;;;23.19;25.81
80629;BME280;69983;42.370;-71.210;2023-10-08T07:20:19;99408.68;;;23.39;25.74
80629;BME280;69983;42.370;-71.210;2023-10-08T07:22:19;99411.16;;;23.36;25.92
80629;BME280;69983;42.370;-71.210;2023-10-08T07:24:19;99413.94;;;23.38;25.96
80629;BME280;69983;42.370;-71.210;2023-10-08T07:26:20;99413.10;;;23.22;26.15
80629;BME280;69983;42.370;-71.210;2023-10-08T07:28:20;99412.26;;;23.31;26.18
80629;BME280;69983;42.370;-71.210;2023-10-08T07:30:21;99404.21;;;23.62;25.99
80629;BME280;69983;42.370;-71.210;2023-10-08T07:32:22;99399.69;;;23.35;26.08
80629;BME280;69983;42.370;-71.210;2023-10-08T07:34:22;99398.69;;;23.78;26.18
80629;BME280;69983;42.370;-71.210;2023-10-08T07:36:22;99408.08;;;23.73;26.58
80629;BME280;69983;42.370;-71.210;2023-10-08T07:38:22;99409.20;;;23.00;26.48
80629;BME280;69983;42.370;-71.210;2023-10-08T07:40:22;99410.34;;;23.15;26.31
80629;BME280;69983;42.370;-71.210;2023-10-08T07:42:23;99404.11;;;22.12;26.33
80629;BME280;69983;42.370;-71.210;2023-10-08T07:44:24;99404.26;;;22.78;26.20
80629;BME280;69983;42.370;-71.210;2023-10-08T07:46:24;99402.18;;;22.64;26.24
80629;BME280;69983;42.370;-71.210;2023-10-08T07:48:24;99398.82;;;23.05;26.20
80629;BME280;69983;42.370;-71.210;2023-10-08T07:50:24;99402.39;;;23.18;26.19
80629;BME280;69983;42.370;-71.210;2023-10-08T07:52:25;99409.47;;;23.11;26.34
80629;BME280;69983;42.370;-71.210;2023-10-08T07:54:26;99411.00;;;22.99;26.34
80629;BME280;69983;42.370;-71.210;2023-10-08T07:56:26;99412.14;;;23.57;26.13
80629;BME280;69983;42.370;-71.210;2023-10-08T07:58:25;99416.30;;;23.15;26.38
80629;BME280;69983;42.370;-71.210;2023-10-08T08:00:26;99423.56;;;23.12;26.47
80629;BME280;69983;42.370;-71.210;2023-10-08T08:02:27;99432.81;;;23.06;26.74
80629;BME280;69983;42.370;-71.210;2023-10-08T08:04:28;99445.77;;;23.61;26.50
80629;BME280;69983;42.370;-71.210;2023-10-08T08:06:28;99454.29;;;23.36;26.53
80629;BME280;69983;42.370;-71.210;2023-10-08T08:08:28;99458.41;;;23.27;26.69
80629;BME280;69983;42.370;-71.210;2023-10-08T08:10:30;99469.16;;;23.78;26.81
80629;BME280;69983;42.370;-71.210;2023-10-08T08:12:31;99466.62;;;23.36;26.56
80629;BME280;69983;42.370;-71.210;2023-10-08T08:14:29;99464.35;;;23.49;25.99
80629;BME280;69983;42.370;-71.210;2023-10-08T08:16:31;99465.99;;;23.57;25.80
80629;BME280;69983;42.370;-71.210;2023-10-08T08:18:32;99475.54;;;23.14;26.30
80629;BME280;69983;42.370;-71.210;2023-10-08T08:20:35;99476.94;;;22.73;26.57
80629;BME280;69983;42.370;-71.210;2023-10-08T08:22:33;99474.51;;;23.00;26.46
80629;BME280;69983;42.370;-71.210;2023-10-08T08:24:34;99476.39;;;23.30;26.50
80629;BME280;69983;42.370;-71.210;2023-10-08T08:26:33;99478.22;;;23.11;26.54
80629;BME280;69983;42.370;-71.210;2023-10-08T08:28:34;99481.73;;;23.01;26.48
80629;BME280;69983;42.370;-71.210;2023-10-08T08:30:35;99486.74;;;23.47;26.57
80629;BME280;69983;42.370;-71.210;2023-10-08T08:32:34;99488.68;;;23.44;26.46
80629;BME280;69983;42.370;-71.210;2023-10-08T08:34:35;99499.31;;;23.15;26.57
80629;BME280;69983;42.370;-71.210;2023-10-08T08:36:35;99496.84;;;23.08;26.48
80629;BME280;69983;42.370;-71.210;2023-10-08T08:38:35;99499.77;;;23.09;26.16
80629;BME280;69983;42.370;-71.210;2023-10-08T08:40:36;99494.79;;;22.94;25.67
80629;BME280;69983;42.370;-71.210;2023-10-08T08:42:36;99496.07;;;22.73;26.05
80629;BME280;69983;42.370;-71.210;2023-10-08T08:44:37;99501.39;;;22.42;26.18
80629;BME280;69983;42.370;-71.210;2023-10-08T08:46:38;99504.81;;;22.65;26.34
80629;BME280;69983;42.370;-71.210;2023-10-08T08:48:38;99507.82;;;23.21;26.17
80629;BME280;69983;42.370;-71.210;2023-10-08T08:50:38;99506.26;;;23.14;26.35
80629;BME280;69983;42.370;-71.210;2023-10-08T08:52:37;99514.57;;;23.42;26.18
80629;BME280;69983;42.370;-71.210;2023-10-08T08:54:37;99514.15;;;23.26;26.44
80629;BME280;69983;42.370;-71.210;2023-10-08T08:56:39;99512.90;;;22.87;26.43
80629;BME280;69983;42.370;-71.210;2023-10-08T08:58:38;99510.00;;;23.14;26.50
80629;BME280;69983;42.370;-71.210;2023-10-08T09:00:37;99506.86;;;23.28;26.44
80629;BME280;69983;42.370;-71.210;2023-10-08T09:02:38;99510.89;;;23.59;26.45
80629;BME280;69983;42.370;-71.210;2023-10-08T09:04:37;99515.66;;;23.53;26.37
80629;BME280;69983;42.370;-71.210;2023-10-08T09:06:38;99516.28;;;23.26;26.69
80629;BME280;69983;42.370;-71.210;2023-10-08T09:08:39;99518.52;;;23.57;26.80
80629;BME280;69983;42.370;-71.210;2023-10-08T09:10:38;99519.18;;;23.61;26.07
80629;BME280;69983;42.370;-71.210;2023-10-08T09:12:39;99519.75;;;22.55;26.26
80629;BME280;69983;42.370;-71.210;2023-10-08T09:14:39;99526.57;;;23.09;25.86
80629;BME280;69983;42.370;-71.210;2023-10-08T09:16:38;99537.90;;;23.05;26.02
80629;BME280;69983;42.370;-71.210;2023-10-08T09:18:41;99544.91;;;22.88;26.31
80629;BME280;69983;42.370;-71.210;2023-10-08T09:20:40;99544.21;;;23.17;26.19
80629;BME280;69983;42.370;-71.210;2023-10-08T09:22:38;99551.73;;;23.07;26.17
80629;BME280;69983;42.370;-71.210;2023-10-08T09:24:41;99555.45;;;22.76;26.31
80629;BME280;69983;42.370;-71.210;2023-10-08T09:26:39;99559.44;;;22.90;26.50
80629;BME280;69983;42.370;-71.210;2023-10-08T09:28:39;99560.44;;;23.00;26.50
80629;BME280;69983;42.370;-71.210;2023-10-08T09:30:39;99561.94;;;22.86;26.49
80629;BME280;69983;42.370;-71.210;2023-10-08T09:32:40;99559.58;;;23.30;26.59
80629;BME280;69983;42.370;-71.210;2023-10-08T09:34:39;99559.73;;;23.35;26.61
80629;BME280;69983;42.370;-71.210;2023-10-08T09:36:39;99564.20;;;22.79;26.75
80629;BME280;69983;42.370;-71.210;2023-10-08T09:38:40;99564.67;;;22.99;26.66
80629;BME280;69983;42.370;-71.210;2023-10-08T09:40:40;99562.97;;;23.30;26.68
80629;BME280;69983;42.370;-71.210;2023-10-08T09:42:40;99569.73;;;23.61;26.61
80629;BME280;69983;42.370;-71.210;2023-10-08T09:44:40;99568.11;;;23.67;26.57
80629;BME280;69983;42.370;-71.210;2023-10-08T09:46:43;99569.15;;;23.39;26.61
80629;BME280;69983;42.370;-71.210;2023-10-08T09:48:45;99568.66;;;23.52;26.75
80629;BME280;69983;42.370;-71.210;2023-10-08T09:50:43;99567.57;;;23.74;26.59
80629;BME280;69983;42.370;-71.210;2023-10-08T09:52:48;99566.71;;;23.42;26.67
80629;BME280;69983;42.370;-71.210;2023-10-08T09:54:48;99568.37;;;23.30;26.60
80629;BME280;69983;42.370;-71.210;2023-10-08T09:56:44;99565.70;;;23.54;26.62
80629;BME280;69983;42.370;-71.210;2023-10-08T09:58:44;99571.05;;;23.70;26.72
80629;BME280;69983;42.370;-71.210;2023-10-08T10:00:46;99572.92;;;23.35;26.85
80629;BME280;69983;42.370;-71.210;2023-10-08T10:02:46;99577.08;;;23.23;26.77
80629;BME280;69983;42.370;-71.210;2023-10-08T10:04:49;99578.87;;;23.83;26.33
80629;BME280;69983;42.370;-71.210;2023-10-08T10:06:47;99577.41;;;23.01;26.26
80629;BME280;69983;42.370;-71.210;2023-10-08T10:08:47;99581.10;;;23.73;25.72
80629;BME280;69983;42.370;-71.210;2023-10-08T10:10:47;99581.83;;;23.07;25.58
80629;BME280;69983;42.370;-71.210;2023-10-08T10:12:49;99584.69;;;22.62;26.28
80629;BME280;69983;42.370;-71.210;2023-10-08T10:14:47;99586.35;;;23.21;26.08
80629;BME280;69983;42.370;-71.210;2023-10-08T10:16:52;99590.52;;;23.16;26.21
80629;BME280;69983;42.370;-71.210;2023-10-08T10:18:50;99595.01;;;23.27;26.20
80629;BME280;69983;42.370;-71.210;2023-10-08T10:20:55;99601.87;;;23.44;26.11